Time;durP1;ratioP1;P1;durP2;ratioP2;P2;SDS_P1;SDS_P2;PMS_P1;PMS_P2;Temp;Humidity;BMP_temperature;BMP_pressure;BME280_temperature;BME280_humidity;BME280_pressure;Samples;Min_cycle;Max_cycle;Signal;HPM_P1;HPM_P2
2022/10/18 00:01:16;;;;;;;7.80;3.70;;;;;;;15.72;85.71;96517.16;4870506;29;20212;-83
2022/10/18 00:03:42;;;;;;;7.13;3.85;;;;;;;15.78;85.20;96505.25;4857093;29;20259;-82
2022/10/18 00:06:10;;;;;;;6.68;3.83;;;;;;;15.79;85.21;96499.84;4893599;29;20188;-81
2022/10/18 00:08:37;;;;;;;5.70;4.40;;;;;;;15.80;84.91;96503.28;4903286;29;20188;-81
2022/10/18 00:11:02;;;;;;;3.80;3.40;;;;;;;15.75;85.28;96495.91;4894958;29;20187;-82
2022/10/18 00:13:27;;;;;;;7.60;3.65;;;;;;;15.82;84.83;96501.34;4895546;29;20215;-82
2022/10/18 00:15:56;;;;;;;4.60;3.38;;;;;;;15.88;84.55;96503.31;4886107;29;20198;-83
2022/10/18 00:18:22;;;;;;;9.75;3.72;;;;;;;15.80;84.87;96509.34;4892432;29;20246;-82
2022/10/18 00:21:06;;;;;;;6.72;3.20;;;;;;;15.83;84.55;96509.06;4880641;29;20188;-82
2022/10/18 00:23:33;;;;;;;7.15;3.72;;;;;;;15.84;84.35;96505.44;4874037;29;20204;-83
2022/10/18 00:26:00;;;;;;;9.55;3.42;;;;;;;15.85;84.74;96514.94;4871561;29;20188;-83
2022/10/18 00:28:26;;;;;;;5.30;3.20;;;;;;;15.78;85.03;96500.81;4861194;29;20227;-83
2022/10/18 00:30:51;;;;;;;4.32;3.22;;;;;;;15.87;84.75;96504.31;4878547;29;20180;-83
2022/10/18 00:33:16;;;;;;;7.97;3.15;;;;;;;15.92;84.70;96506.47;4875338;29;20283;-82
2022/10/18 00:35:42;;;;;;;5.70;3.85;;;;;;;15.97;84.43;96505.00;4876718;29;20652;-82
2022/10/18 00:38:07;;;;;;;9.38;3.72;;;;;;;15.94;84.56;96505.31;4876800;29;20206;-81
2022/10/18 00:40:32;;;;;;;5.95;3.70;;;;;;;16.10;83.32;96515.88;4876213;29;20199;-81
2022/10/18 00:42:57;;;;;;;7.53;3.63;;;;;;;16.21;82.32;96511.31;4875305;29;20192;-81
2022/10/18 00:45:23;;;;;;;7.95;3.53;;;;;;;16.26;82.00;96511.69;4874405;29;20187;-82
2022/10/18 00:48:07;;;;;;;6.00;3.65;;;;;;;16.23;82.07;96510.16;4876304;29;20192;-81
2022/10/18 00:50:33;;;;;;;6.70;3.33;;;;;;;16.22;81.67;96513.78;4854256;29;20197;-82
2022/10/18 00:53:02;;;;;;;7.93;3.45;;;;;;;16.25;81.33;96518.69;4886476;29;20245;-82
2022/10/18 00:55:30;;;;;;;7.03;3.30;;;;;;;16.22;81.72;96524.25;4890474;29;20720;-82
2022/10/18 00:57:56;;;;;;;5.93;3.50;;;;;;;16.21;81.57;96521.81;4883806;29;20691;-81
2022/10/18 01:00:21;;;;;;;9.07;3.42;;;;;;;16.22;81.32;96518.19;4890975;29;20306;-81
2022/10/18 01:02:47;;;;;;;7.47;4.55;;;;;;;16.20;81.53;96510.50;4870073;29;20184;-82
2022/10/18 01:05:14;;;;;;;4.57;3.03;;;;;;;16.19;81.22;96516.72;4875686;29;20196;-82
2022/10/18 01:08:14;;;;;;;7.47;3.42;;;;;;;16.12;81.73;96513.91;4873161;29;20206;-81
2022/10/18 01:11:11;;;;;;;6.53;3.20;;;;;;;16.10;81.89;96515.06;4873717;29;20256;-82
2022/10/18 01:13:42;;;;;;;3.75;3.33;;;;;;;16.06;81.61;96518.94;4883695;29;20219;-82
2022/10/18 01:16:52;;;;;;;4.55;3.10;;;;;;;16.15;81.30;96513.59;4867731;29;20193;-82
2022/10/18 01:19:39;;;;;;;5.95;3.05;;;;;;;16.20;80.92;96514.91;4880555;29;20272;-82
2022/10/18 01:22:22;;;;;;;8.45;3.28;;;;;;;16.30;79.64;96515.59;4889265;29;20203;-82
2022/10/18 01:25:01;;;;;;;4.00;2.80;;;;;;;16.39;78.94;96517.25;4891999;29;20567;-82
2022/10/18 01:27:34;;;;;;;5.43;2.83;;;;;;;16.38;78.70;96513.00;4868200;29;20203;-83
2022/10/18 01:30:38;;;;;;;3.20;2.90;;;;;;;16.47;78.75;96503.38;4875923;29;20211;-81
2022/10/18 01:33:20;;;;;;;5.00;2.78;;;;;;;16.31;78.91;96512.00;4875916;29;20392;-83
2022/10/18 01:35:50;;;;;;;4.78;3.28;;;;;;;16.41;78.23;96504.81;4863486;29;20215;-82
2022/10/18 01:38:16;;;;;;;5.93;2.63;;;;;;;16.24;78.76;96505.75;4863638;29;20278;-83
2022/10/18 01:40:44;;;;;;;6.40;2.53;;;;;;;16.25;78.61;96505.59;4870684;29;20241;-83
2022/10/18 01:43:09;;;;;;;3.55;2.65;;;;;;;16.35;77.89;96508.09;4878771;29;20210;-83
2022/10/18 01:45:35;;;;;;;5.15;2.90;;;;;;;16.52;76.70;96506.31;4876160;29;20234;-83
2022/10/18 01:48:00;;;;;;;6.80;3.28;;;;;;;16.52;76.51;96501.06;4892466;29;20741;-82
2022/10/18 01:50:33;;;;;;;6.15;2.90;;;;;;;16.58;75.51;96503.03;4876626;29;20221;-82
2022/10/18 01:52:59;;;;;;;3.97;2.65;;;;;;;16.62;75.39;96499.97;4871490;29;20231;-82
2022/10/18 01:55:32;;;;;;;5.35;2.50;;;;;;;16.64;74.65;96497.97;4873238;29;20198;-82
2022/10/18 01:57:57;;;;;;;5.30;2.45;;;;;;;16.58;74.80;96493.38;4887187;29;20196;-82
2022/10/18 02:00:26;;;;;;;3.35;2.30;;;;;;;16.44;75.77;96486.16;4881918;29;20216;-82
2022/10/18 02:02:56;;;;;;;9.05;2.90;;;;;;;16.38;75.45;96490.22;4872836;29;20188;-81
2022/10/18 02:05:24;;;;;;;6.25;2.67;;;;;;;16.35;75.77;96484.50;4889244;29;20180;-83
2022/10/18 02:07:57;;;;;;;2.80;2.40;;;;;;;16.37;75.79;96483.34;4871171;29;20196;-82
2022/10/18 02:10:44;;;;;;;5.75;2.80;;;;;;;16.43;75.24;96479.25;4873381;29;20229;-81
2022/10/18 02:13:13;;;;;;;3.00;2.50;;;;;;;16.41;75.02;96486.47;4889582;29;20252;-82
2022/10/18 02:15:41;;;;;;;5.75;2.70;;;;;;;16.35;75.53;96481.88;4887493;29;20655;-82
2022/10/18 02:18:18;;;;;;;5.38;2.65;;;;;;;16.36;75.75;96488.75;4875716;29;20195;-82
2022/10/18 02:20:44;;;;;;;4.32;2.22;;;;;;;16.36;75.91;96484.34;4875318;29;20188;-82
2022/10/18 02:23:10;;;;;;;4.13;2.70;;;;;;;16.35;76.00;96482.69;4872971;29;20195;-82
2022/10/18 02:25:36;;;;;;;4.25;2.50;;;;;;;16.35;75.40;96476.66;4879415;29;20553;-82
2022/10/18 02:28:02;;;;;;;5.60;2.72;;;;;;;16.33;75.61;96479.41;4868592;29;20184;-81
2022/10/18 02:30:47;;;;;;;3.75;2.53;;;;;;;16.29;76.50;96472.03;4873082;29;20267;-83
2022/10/18 02:33:21;;;;;;;4.85;2.83;;;;;;;16.28;76.21;96471.22;4889105;29;20204;-81
2022/10/18 02:35:52;;;;;;;3.85;2.67;;;;;;;16.29;76.29;96466.78;4857549;29;20184;-82
2022/10/18 02:38:18;;;;;;;2.42;2.10;;;;;;;16.20;76.48;96467.75;4891576;29;20180;-82
2022/10/18 02:40:43;;;;;;;5.13;2.92;;;;;;;16.13;77.12;96472.81;4884164;29;20188;-83
2022/10/18 02:43:09;;;;;;;5.50;2.85;;;;;;;16.06;77.43;96461.31;4871065;29;20200;-82
2022/10/18 02:45:34;;;;;;;3.38;2.60;;;;;;;15.97;77.86;96468.31;4878243;29;20219;-83
2022/10/18 02:47:59;;;;;;;5.65;2.35;;;;;;;15.89;78.69;96457.00;4872768;29;20194;-82
2022/10/18 02:50:25;;;;;;;4.65;2.95;;;;;;;15.87;78.55;96462.41;4892020;29;20304;-82
2022/10/18 02:52:50;;;;;;;4.00;2.63;;;;;;;15.88;78.92;96465.84;4870485;29;20212;-82
2022/10/18 02:55:16;;;;;;;3.50;2.40;;;;;;;15.84;79.01;96462.72;4875466;29;20184;-83
2022/10/18 02:57:42;;;;;;;5.38;2.83;;;;;;;15.75;78.93;96463.66;4879106;29;20184;-82
2022/10/18 03:00:08;;;;;;;4.32;3.17;;;;;;;15.63;79.85;96470.13;4868790;29;20200;-83
2022/10/18 03:02:33;;;;;;;3.47;2.70;;;;;;;15.55;79.91;96463.06;4892822;29;20187;-82
2022/10/18 03:04:59;;;;;;;4.43;3.10;;;;;;;15.45;80.50;96463.16;4861311;29;20196;-82
2022/10/18 03:07:24;;;;;;;7.50;2.70;;;;;;;15.43;80.51;96465.09;4868474;29;20244;-82
2022/10/18 03:09:49;;;;;;;5.15;3.03;;;;;;;15.45;80.27;96468.38;4877185;29;20204;-82
2022/10/18 03:12:15;;;;;;;2.95;2.72;;;;;;;15.42;80.79;96466.09;4870042;29;20199;-83
2022/10/18 03:14:40;;;;;;;6.38;3.38;;;;;;;15.45;80.73;96457.09;4876438;29;20188;-82
2022/10/18 03:17:06;;;;;;;5.90;3.05;;;;;;;15.55;79.75;96453.41;4867321;29;20200;-82
2022/10/18 03:19:31;;;;;;;4.43;2.50;;;;;;;15.50;80.50;96454.84;4862080;29;20215;-83
2022/10/18 03:21:56;;;;;;;5.13;3.20;;;;;;;15.47;80.24;96460.41;4878051;29;20188;-82
2022/10/18 03:24:21;;;;;;;4.07;2.50;;;;;;;15.48;80.70;96460.25;4869704;29;20206;-82
2022/10/18 03:26:47;;;;;;;4.05;2.90;;;;;;;15.39;80.76;96452.50;4870082;29;20231;-82
2022/10/18 03:29:12;;;;;;;3.15;2.67;;;;;;;15.44;80.41;96468.53;4875231;29;20219;-82
2022/10/18 03:31:37;;;;;;;4.85;2.50;;;;;;;15.37;80.78;96457.91;4877456;29;20198;-83
2022/10/18 03:34:03;;;;;;;7.65;3.08;;;;;;;15.38;80.75;96458.72;4876684;29;20287;-83
2022/10/18 03:36:28;;;;;;;4.63;3.20;;;;;;;15.39;80.35;96460.34;4876122;29;20199;-83
2022/10/18 03:38:53;;;;;;;5.38;2.72;;;;;;;15.39;80.35;96470.81;4869683;29;20208;-82
2022/10/18 03:41:19;;;;;;;4.05;2.90;;;;;;;15.41;80.04;96463.63;4876220;29;20207;-82
2022/10/18 03:43:45;;;;;;;7.38;3.53;;;;;;;15.49;79.46;96466.28;4871888;29;20195;-82
2022/10/18 03:46:10;;;;;;;4.72;3.08;;;;;;;15.50;79.21;96466.13;4873705;29;20195;-83
2022/10/18 03:48:38;;;;;;;6.93;3.00;;;;;;;15.54;78.90;96470.06;4877297;29;20283;-82
2022/10/18 03:51:04;;;;;;;4.70;2.53;;;;;;;15.53;78.69;96468.44;4877807;29;20196;-82
2022/10/18 03:53:29;;;;;;;5.50;2.80;;;;;;;15.59;78.58;96465.19;4860489;29;20220;-82
2022/10/18 03:55:55;;;;;;;8.70;2.72;;;;;;;15.64;77.87;96469.19;4873933;29;20192;-82
2022/10/18 03:58:21;;;;;;;5.68;2.80;;;;;;;15.72;77.38;96464.78;4869380;29;20195;-83
2022/10/18 04:00:53;;;;;;;5.70;2.90;;;;;;;15.76;77.50;96467.94;4890263;29;20192;-81
2022/10/18 04:03:20;;;;;;;4.30;2.75;;;;;;;15.89;77.17;96470.09;4877508;29;20188;-82
2022/10/18 04:05:46;;;;;;;3.67;2.85;;;;;;;15.92;76.88;96473.22;4877277;29;20664;-83
2022/10/18 04:08:12;;;;;;;4.65;2.90;;;;;;;15.98;76.51;96475.19;4891804;29;20188;-82
2022/10/18 04:10:37;;;;;;;3.95;2.97;;;;;;;16.04;76.44;96476.38;4880828;29;20263;-81
2022/10/18 04:13:03;;;;;;;3.83;3.08;;;;;;;16.07;76.55;96478.66;4869868;29;20565;-82
2022/10/18 04:15:28;;;;;;;8.45;2.72;;;;;;;16.05;76.73;96472.78;4873026;29;20495;-82
2022/10/18 04:17:55;;;;;;;7.15;3.00;;;;;;;16.06;76.68;96477.84;4863348;29;20274;-82
2022/10/18 04:20:20;;;;;;;7.30;3.65;;;;;;;16.03;76.84;96472.94;4876914;29;20256;-82
2022/10/18 04:22:47;;;;;;;4.70;2.97;;;;;;;16.08;77.06;96480.34;4874327;29;20184;-83
2022/10/18 04:25:12;;;;;;;5.95;2.78;;;;;;;16.00;77.16;96477.69;4875228;29;20191;-82
2022/10/18 04:27:38;;;;;;;4.05;2.50;;;;;;;16.06;77.40;96483.09;4873664;29;20188;-82
2022/10/18 04:30:04;;;;;;;4.22;3.03;;;;;;;16.06;77.37;96485.72;4873412;29;20216;-81
2022/10/18 04:32:29;;;;;;;5.25;3.17;;;;;;;15.98;77.53;96483.06;4885146;29;20220;-82
2022/10/18 04:34:54;;;;;;;3.80;3.42;;;;;;;16.00;77.41;96475.06;4860131;29;20876;-82
2022/10/18 04:37:19;;;;;;;6.25;3.25;;;;;;;15.92;77.90;96480.28;4883192;29;20192;-83
2022/10/18 04:39:47;;;;;;;3.90;2.97;;;;;;;15.89;78.18;96478.78;4861629;29;20270;-82
2022/10/18 04:42:12;;;;;;;4.40;3.33;;;;;;;15.83;78.52;96476.81;4873080;29;20246;-83
2022/10/18 04:44:38;;;;;;;5.82;2.80;;;;;;;15.82;78.71;96486.47;4869525;29;20334;-83
2022/10/18 04:47:03;;;;;;;4.75;3.10;;;;;;;15.72;78.93;96480.50;4876700;29;20219;-83
2022/10/18 04:49:28;;;;;;;3.88;3.17;;;;;;;15.66;79.37;96498.66;4890354;29;20219;-82
2022/10/18 04:51:53;;;;;;;4.85;2.95;;;;;;;15.58;79.66;96491.53;4894221;29;20192;-82
2022/10/18 04:54:19;;;;;;;5.75;3.67;;;;;;;15.53;79.99;96486.75;4885509;29;20235;-79
2022/10/18 04:56:44;;;;;;;5.93;3.20;;;;;;;15.49;80.29;96490.66;4882693;29;20226;-80
2022/10/18 04:59:09;;;;;;;4.30;3.22;;;;;;;15.42;80.44;96494.88;4884988;29;20211;-83
2022/10/18 05:01:35;;;;;;;5.35;3.28;;;;;;;15.29;81.38;96495.28;4876387;29;20707;-83
2022/10/18 05:04:00;;;;;;;5.38;2.95;;;;;;;15.20;81.43;96490.16;4876960;29;20207;-82
2022/10/18 05:06:25;;;;;;;5.22;3.10;;;;;;;15.11;82.11;96494.53;4870921;29;20195;-82
2022/10/18 05:08:50;;;;;;;3.42;3.13;;;;;;;15.18;82.59;96494.72;4875653;29;20223;-82
2022/10/18 05:11:16;;;;;;;7.68;3.60;;;;;;;15.14;82.61;96490.78;4867735;29;20609;-84
2022/10/18 05:13:41;;;;;;;6.30;3.33;;;;;;;15.16;82.82;96494.88;4858247;29;20216;-84
2022/10/18 05:16:06;;;;;;;6.97;3.35;;;;;;;15.07;82.79;96489.72;4857407;29;20195;-85
2022/10/18 05:18:32;;;;;;;5.30;3.72;;;;;;;15.05;83.31;96499.53;4876330;29;20243;-84
2022/10/18 05:20:57;;;;;;;3.72;3.13;;;;;;;14.96;83.20;96493.41;4875294;29;20230;-85
2022/10/18 05:23:23;;;;;;;4.65;3.22;;;;;;;14.92;83.64;96492.06;4865709;29;20184;-84
2022/10/18 05:25:48;;;;;;;6.13;3.55;;;;;;;14.90;83.82;96489.59;4864883;29;20232;-84
2022/10/18 05:28:13;;;;;;;6.57;3.58;;;;;;;14.86;84.12;96498.72;4866113;29;20212;-84
2022/10/18 05:30:39;;;;;;;5.93;3.45;;;;;;;14.79;84.84;96491.63;4873336;29;20183;-85
2022/10/18 05:33:05;;;;;;;4.68;3.85;;;;;;;14.84;84.97;96485.00;4877408;29;20212;-85
2022/10/18 05:35:34;;;;;;;4.35;3.35;;;;;;;14.84;85.28;96479.75;4871695;29;20204;-85
2022/10/18 05:38:04;;;;;;;4.22;3.30;;;;;;;14.93;84.89;96484.09;4868734;29;20262;-84
2022/10/18 05:40:29;;;;;;;5.65;3.38;;;;;;;14.92;84.68;96490.25;4876795;29;20188;-85
2022/10/18 05:42:55;;;;;;;5.75;3.22;;;;;;;15.02;84.68;96492.81;4860350;29;20218;-84
2022/10/18 05:45:20;;;;;;;4.65;3.60;;;;;;;15.03;84.79;96484.00;4874959;29;20875;-84
2022/10/18 05:47:45;;;;;;;4.18;3.70;;;;;;;15.13;84.03;96489.94;4871586;29;20198;-84
2022/10/18 05:50:11;;;;;;;6.63;3.63;;;;;;;15.20;83.81;96491.00;4881541;29;20224;-86
2022/10/18 05:52:36;;;;;;;4.18;2.95;;;;;;;15.24;83.72;96494.09;4882147;29;20271;-86
2022/10/18 05:55:01;;;;;;;5.80;3.65;;;;;;;15.25;83.86;96493.13;4865561;29;20199;-85
2022/10/18 05:57:26;;;;;;;6.68;3.58;;;;;;;15.28;83.78;96492.81;4864156;29;20184;-86
2022/10/18 05:59:52;;;;;;;7.70;3.63;;;;;;;15.35;83.54;96493.03;4883473;29;20307;-86
2022/10/18 06:02:17;;;;;;;6.82;3.25;;;;;;;15.40;83.22;96496.84;4879051;29;20202;-86
2022/10/18 06:04:42;;;;;;;4.82;3.83;;;;;;;15.42;83.25;96489.63;4869437;29;20801;-85
2022/10/18 06:07:11;;;;;;;3.67;3.30;;;;;;;15.41;83.05;96492.41;4879688;29;20211;-84
2022/10/18 06:09:37;;;;;;;9.18;3.83;;;;;;;15.44;83.21;96492.09;4895868;29;20272;-85
2022/10/18 06:12:03;;;;;;;4.03;3.63;;;;;;;15.47;82.90;96490.00;4904931;29;20235;-86
2022/10/18 06:14:28;;;;;;;5.43;3.60;;;;;;;15.50;82.72;96492.31;4885097;29;20203;-85
2022/10/18 06:16:55;;;;;;;4.72;3.55;;;;;;;15.53;82.65;96486.75;4904974;29;20180;-85
2022/10/18 06:19:21;;;;;;;5.45;3.55;;;;;;;15.57;82.55;96503.81;4888470;29;20241;-85
2022/10/18 06:21:46;;;;;;;7.30;3.88;;;;;;;15.52;82.83;96490.34;4904446;29;20208;-86
2022/10/18 06:24:11;;;;;;;4.30;3.55;;;;;;;15.59;82.27;96501.84;4897825;29;20247;-85
2022/10/18 06:26:36;;;;;;;3.70;3.05;;;;;;;15.59;82.35;96499.22;4891080;29;20206;-84
2022/10/18 06:29:02;;;;;;;4.63;3.67;;;;;;;15.70;81.89;96486.88;4865321;29;20213;-85
2022/10/18 06:31:27;;;;;;;8.20;3.22;;;;;;;15.69;81.71;96482.63;4879842;29;20266;-84
2022/10/18 06:33:55;;;;;;;6.15;3.63;;;;;;;15.68;82.17;96480.97;4866919;29;20718;-85
2022/10/18 06:36:23;;;;;;;7.25;3.60;;;;;;;15.71;81.90;96491.13;4878792;29;20570;-84
2022/10/18 06:38:49;;;;;;;6.60;3.72;;;;;;;15.74;81.75;96491.66;4867354;29;20231;-84
2022/10/18 06:41:14;;;;;;;7.30;3.65;;;;;;;15.73;81.48;96505.72;4865450;29;20287;-86
2022/10/18 06:43:39;;;;;;;4.72;3.60;;;;;;;15.76;81.55;96496.72;4865546;29;20184;-84
2022/10/18 06:46:06;;;;;;;5.53;3.60;;;;;;;15.84;80.89;96502.00;4880263;29;20187;-85
2022/10/18 06:48:35;;;;;;;5.32;3.58;;;;;;;15.83;80.84;96501.19;4865211;29;20220;-85
2022/10/18 06:51:03;;;;;;;6.78;3.85;;;;;;;15.88;80.81;96505.13;4870863;29;20242;-84
2022/10/18 06:53:31;;;;;;;5.22;3.75;;;;;;;15.93;80.54;96508.09;4863017;29;20204;-85
2022/10/18 06:56:01;;;;;;;7.53;4.45;;;;;;;15.78;81.96;96521.78;4863621;29;20212;-84
2022/10/18 06:58:26;;;;;;;5.80;3.67;;;;;;;15.74;81.90;96530.13;4888115;29;20208;-84
2022/10/18 07:00:52;;;;;;;4.97;3.63;;;;;;;15.81;81.39;96524.09;4871842;29;20197;-85
2022/10/18 07:03:17;;;;;;;5.13;3.53;;;;;;;15.81;81.82;96536.34;4863605;29;20189;-85
2022/10/18 07:05:42;;;;;;;6.40;3.65;;;;;;;15.90;81.37;96527.56;4870652;29;20679;-84
2022/10/18 07:08:08;;;;;;;5.32;3.92;;;;;;;15.92;81.05;96516.94;4865063;29;20188;-84
2022/10/18 07:10:33;;;;;;;11.88;3.70;;;;;;;16.01;81.02;96523.88;4880883;29;20191;-85
2022/10/18 07:12:58;;;;;;;7.05;3.53;;;;;;;16.04;80.63;96519.13;4892870;29;20278;-84
2022/10/18 07:15:24;;;;;;;7.05;3.40;;;;;;;16.05;80.84;96526.00;4882477;29;20187;-84
2022/10/18 07:17:49;;;;;;;5.80;3.30;;;;;;;16.12;80.78;96520.94;4885426;29;20191;-84
2022/10/18 07:20:15;;;;;;;5.45;3.60;;;;;;;16.31;80.10;96522.47;4864700;29;20211;-83
2022/10/18 07:22:40;;;;;;;6.85;3.60;;;;;;;16.38;79.58;96523.50;4864329;29;20188;-84
2022/10/18 07:25:06;;;;;;;5.05;3.63;;;;;;;16.51;79.61;96529.09;4880023;29;20196;-85
2022/10/18 07:27:35;;;;;;;5.15;3.80;;;;;;;16.49;79.04;96530.22;4872690;29;20224;-84
2022/10/18 07:30:00;;;;;;;5.68;3.72;;;;;;;16.49;79.01;96528.44;4863516;29;20208;-85
2022/10/18 07:32:25;;;;;;;10.93;4.78;;;;;;;16.43;78.83;96527.28;4864094;29;20327;-86
2022/10/18 07:34:51;;;;;;;4.85;4.20;;;;;;;16.45;79.57;96534.16;4868474;29;20187;-86
2022/10/18 07:37:16;;;;;;;5.15;3.75;;;;;;;16.42;79.36;96533.47;4872872;29;20748;-86
2022/10/18 07:39:41;;;;;;;7.85;3.70;;;;;;;16.24;80.11;96540.63;4879678;29;20212;-85
2022/10/18 07:42:07;;;;;;;8.43;3.90;;;;;;;16.17;81.14;96541.44;4871891;29;20203;-85
2022/10/18 07:44:32;;;;;;;7.35;3.50;;;;;;;16.15;81.42;96536.34;4864023;29;20612;-85
2022/10/18 07:46:57;;;;;;;7.15;3.60;;;;;;;16.16;81.71;96540.59;4880075;29;20200;-85
2022/10/18 07:49:22;;;;;;;4.43;4.03;;;;;;;16.18;81.22;96549.16;4877819;29;20213;-85
2022/10/18 07:51:48;;;;;;;7.78;4.47;;;;;;;16.40;80.14;96542.50;4895912;29;20214;-85
2022/10/18 07:54:13;;;;;;;4.13;3.50;;;;;;;16.56;79.34;96554.84;4881440;29;20207;-86
2022/10/18 07:56:38;;;;;;;6.13;3.80;;;;;;;16.51;79.89;96559.72;4887316;29;20601;-85
2022/10/18 07:59:04;;;;;;;7.45;4.30;;;;;;;16.67;79.45;96555.34;4876479;29;20618;-86
2022/10/18 08:01:29;;;;;;;4.95;3.40;;;;;;;16.82;78.24;96557.38;4867432;29;20280;-86
2022/10/18 08:03:54;;;;;;;10.82;3.70;;;;;;;16.88;78.27;96572.50;4864822;29;20192;-84
2022/10/18 08:06:21;;;;;;;7.57;3.60;;;;;;;16.95;78.65;96569.03;4872418;29;20188;-85
2022/10/18 08:08:46;;;;;;;20.98;4.18;;;;;;;17.04;78.38;96569.03;4863318;29;20211;-84
2022/10/18 08:11:20;;;;;;;9.23;4.38;;;;;;;17.11;77.75;96578.72;4861905;29;20200;-85
2022/10/18 08:13:45;;;;;;;7.68;3.63;;;;;;;17.21;77.16;96573.31;4890444;29;20684;-87
2022/10/18 08:16:14;;;;;;;4.63;3.45;;;;;;;17.27;76.93;96573.50;4879316;29;20275;-86
2022/10/18 08:18:39;;;;;;;6.72;3.50;;;;;;;17.27;76.22;96567.41;4865232;29;20243;-86
2022/10/18 08:21:06;;;;;;;12.98;4.05;;;;;;;17.35;75.86;96558.72;4873394;29;20579;-86
2022/10/18 08:23:32;;;;;;;9.63;3.80;;;;;;;17.34;75.35;96567.59;4864139;29;20180;-85
2022/10/18 08:26:04;;;;;;;4.40;3.67;;;;;;;17.34;75.43;96578.09;4887677;29;20187;-86
2022/10/18 08:28:29;;;;;;;7.65;3.75;;;;;;;17.32;76.60;96586.13;4869229;29;20208;-86
2022/10/18 08:30:55;;;;;;;10.80;3.78;;;;;;;17.35;77.13;96580.53;4868710;29;20278;-86
2022/10/18 08:33:20;;;;;;;9.55;3.60;;;;;;;17.31;76.21;96583.66;4878150;29;20210;-86
2022/10/18 08:35:55;;;;;;;5.65;3.42;;;;;;;17.11;76.66;96583.97;4879974;29;20195;-86
2022/10/18 08:38:20;;;;;;;6.05;3.60;;;;;;;17.04;77.49;96590.84;4869974;29;20251;-86
2022/10/18 08:40:46;;;;;;;6.50;3.55;;;;;;;17.10;77.75;96589.41;4878910;29;20222;-85
2022/10/18 08:43:33;;;;;;;5.10;3.25;;;;;;;17.23;76.75;96585.31;4856720;29;20270;-85
2022/10/18 08:45:58;;;;;;;7.57;4.40;;;;;;;17.23;77.07;96587.94;4875912;29;20224;-86
2022/10/18 08:48:31;;;;;;;8.65;3.70;;;;;;;17.36;76.26;96592.69;4879495;29;20218;-85
2022/10/18 08:50:57;;;;;;;7.45;3.83;;;;;;;17.24;77.15;96589.56;4871110;29;20192;-86
2022/10/18 08:53:29;;;;;;;12.95;5.03;;;;;;;17.23;77.83;96595.81;4862871;29;20219;-86
2022/10/18 08:56:01;;;;;;;16.00;4.43;;;;;;;17.30;77.60;96589.88;4879904;29;20199;-86
2022/10/18 08:58:30;;;;;;;9.60;4.47;;;;;;;17.25;78.01;96591.22;4878806;29;20208;-86
2022/10/18 09:01:14;;;;;;;11.45;4.30;;;;;;;17.18;78.68;96586.78;4869505;29;20637;-85
2022/10/18 09:04:04;;;;;;;11.10;4.05;;;;;;;17.33;79.33;96579.06;4871622;29;20175;-86
2022/10/18 09:07:07;;;;;;;9.75;4.82;;;;;;;17.20;80.20;96577.75;4865417;29;20188;-85
2022/10/18 09:09:38;;;;;;;5.72;3.63;;;;;;;17.44;80.23;96590.06;4881195;29;20235;-87
2022/10/18 09:12:30;;;;;;;8.80;4.15;;;;;;;17.51;79.45;96592.84;4894389;29;20287;-87
2022/10/18 09:15:07;;;;;;;7.20;3.80;;;;;;;17.67;79.60;96590.22;4873894;29;20550;-85
2022/10/18 09:17:58;;;;;;;9.50;3.67;;;;;;;17.80;79.27;96590.53;4880071;29;20188;-85
2022/10/18 09:20:30;;;;;;;4.60;3.55;;;;;;;17.89;79.13;96598.41;4865770;29;20210;-86
2022/10/18 09:23:04;;;;;;;9.35;3.95;;;;;;;17.99;78.05;96602.50;4863063;29;20221;-85
2022/10/18 09:25:34;;;;;;;8.63;3.90;;;;;;;18.07;77.72;96593.78;4863229;29;20184;-86
2022/10/18 09:28:22;;;;;;;6.38;3.97;;;;;;;18.07;76.58;96586.69;4863020;29;20283;-85
2022/10/18 09:30:57;;;;;;;4.35;3.38;;;;;;;18.14;76.93;96583.41;4859349;29;20725;-85
2022/10/18 09:33:40;;;;;;;7.05;3.47;;;;;;;18.29;75.75;96587.78;4892153;29;20223;-85
2022/10/18 09:36:08;;;;;;;9.95;3.42;;;;;;;18.49;74.54;96582.94;4870622;29;20286;-86
2022/10/18 09:38:41;;;;;;;7.97;2.97;;;;;;;18.36;75.14;96588.72;4876769;29;20212;-86
2022/10/18 09:41:12;;;;;;;7.15;2.88;;;;;;;18.45;73.00;96586.88;4862720;29;20555;-85
2022/10/18 09:43:51;;;;;;;5.97;3.30;;;;;;;18.55;73.86;96590.16;4878111;29;20187;-85
2022/10/18 09:46:19;;;;;;;3.75;2.80;;;;;;;18.72;72.32;96590.88;4877567;29;20247;-85
2022/10/18 09:48:49;;;;;;;6.03;3.08;;;;;;;18.88;73.10;96606.59;4878521;29;20254;-85
2022/10/18 09:51:20;;;;;;;5.72;2.85;;;;;;;18.90;72.54;96594.06;4878142;29;20206;-83
2022/10/18 09:54:03;;;;;;;7.13;2.90;;;;;;;19.04;71.18;96600.41;4877268;29;20262;-85
2022/10/18 09:57:16;;;;;;;3.05;2.20;;;;;;;19.01;70.81;96602.59;4882851;29;20720;-86
2022/10/18 09:59:45;;;;;;;4.72;2.63;;;;;;;19.05;71.71;96601.22;4873338;29;20323;-85
2022/10/18 10:02:19;;;;;;;4.95;2.85;;;;;;;19.04;71.72;96604.88;4845286;29;20215;-86
2022/10/18 10:04:45;;;;;;;7.75;2.95;;;;;;;18.96;71.91;96603.09;4855498;29;20280;-86
2022/10/18 10:07:17;;;;;;;5.82;3.13;;;;;;;18.90;72.71;96594.06;4850867;29;20680;-83
2022/10/18 10:09:55;;;;;;;7.05;3.60;;;;;;;18.90;72.45;96594.06;4863391;29;20238;-83
2022/10/18 10:12:23;;;;;;;5.70;3.50;;;;;;;18.80;72.46;96605.81;4854901;29;20192;-84
2022/10/18 10:14:48;;;;;;;5.35;2.95;;;;;;;18.88;73.21;96600.50;4871182;29;20237;-84
2022/10/18 10:17:28;;;;;;;5.75;3.38;;;;;;;18.93;73.03;96599.00;4849400;29;20224;-84
2022/10/18 10:19:57;;;;;;;6.38;3.25;;;;;;;18.91;72.67;96606.28;4848710;29;20212;-84
2022/10/18 10:22:32;;;;;;;7.70;3.50;;;;;;;18.80;72.92;96606.63;4857065;29;20231;-84
2022/10/18 10:24:58;;;;;;;5.60;3.35;;;;;;;18.81;73.02;96599.56;4869312;29;20211;-84
2022/10/18 10:27:28;;;;;;;3.88;3.30;;;;;;;18.96;72.16;96611.81;4840124;29;20630;-86
2022/10/18 10:29:56;;;;;;;3.45;3.00;;;;;;;19.04;71.17;96610.13;4848509;29;20212;-85
2022/10/18 10:32:24;;;;;;;4.88;3.33;;;;;;;19.25;71.29;96608.50;4871122;29;20192;-87
2022/10/18 10:34:49;;;;;;;5.00;3.05;;;;;;;19.24;71.17;96612.13;4853919;29;20545;-85
2022/10/18 10:37:28;;;;;;;8.10;4.15;;;;;;;19.25;71.16;96605.84;4860679;29;20261;-85
2022/10/18 10:40:17;;;;;;;5.72;3.13;;;;;;;19.22;70.92;96603.56;4891199;29;20246;-86
2022/10/18 10:43:03;;;;;;;3.70;2.72;;;;;;;19.48;70.18;96602.41;4887681;29;20285;-87
2022/10/18 10:45:37;;;;;;;5.47;3.15;;;;;;;19.49;69.77;96604.03;4858016;29;20185;-85
2022/10/18 10:48:05;;;;;;;5.13;2.60;;;;;;;19.33;70.11;96599.72;4869709;29;20196;-86
2022/10/18 10:50:30;;;;;;;4.75;2.90;;;;;;;19.24;69.74;96601.59;4862965;29;20299;-85
2022/10/18 10:52:57;;;;;;;3.92;2.78;;;;;;;19.36;69.50;96596.75;4868010;29;20302;-86
2022/10/18 10:55:27;;;;;;;5.47;2.90;;;;;;;19.14;70.47;96597.56;4867039;29;20188;-84
2022/10/18 10:57:55;;;;;;;6.70;2.65;;;;;;;19.47;69.59;96604.22;4863826;29;20220;-86
2022/10/18 11:00:32;;;;;;;4.50;2.83;;;;;;;19.45;69.41;96590.41;4882935;29;20199;-86
2022/10/18 11:03:10;;;;;;;6.60;3.00;;;;;;;19.41;69.39;96607.56;4884552;29;20183;-85
2022/10/18 11:05:46;;;;;;;7.07;2.85;;;;;;;19.37;68.78;96616.00;4875309;29;20271;-83
2022/10/18 11:08:15;;;;;;;6.05;3.10;;;;;;;19.46;69.23;96614.94;4884699;29;20184;-86
2022/10/18 11:11:18;;;;;;;5.68;2.80;;;;;;;19.45;68.14;96611.47;4868627;29;20187;-84
2022/10/18 11:13:55;;;;;;;5.05;2.40;;;;;;;19.40;69.09;96608.56;4854070;29;20716;-85
2022/10/18 11:16:28;;;;;;;6.80;2.50;;;;;;;19.47;68.94;96613.94;4888018;29;20673;-84
2022/10/18 11:18:55;;;;;;;4.43;2.90;;;;;;;19.47;68.86;96614.75;4890019;29;20314;-85
2022/10/18 11:21:23;;;;;;;5.05;2.70;;;;;;;19.57;68.62;96611.91;4855509;29;20647;-85
2022/10/18 11:23:49;;;;;;;4.47;2.75;;;;;;;19.67;68.66;96614.28;4892655;29;20188;-87
2022/10/18 11:26:53;;;;;;;4.65;3.13;;;;;;;19.85;67.98;96613.97;4869590;29;20602;-87
2022/10/18 11:29:38;;;;;;;5.43;2.78;;;;;;;19.76;68.59;96615.84;4872086;29;20215;-85
2022/10/18 11:32:22;;;;;;;4.40;2.83;;;;;;;19.59;68.63;96614.34;4863680;29;20672;-85
2022/10/18 11:34:56;;;;;;;3.72;2.65;;;;;;;19.80;68.40;96615.34;4879049;29;20266;-85
2022/10/18 11:37:37;;;;;;;3.67;2.85;;;;;;;20.30;66.92;96619.09;4866975;29;20191;-85
2022/10/18 11:40:25;;;;;;;3.95;2.72;;;;;;;20.00;67.51;96618.25;4865891;29;20242;-86
2022/10/18 11:43:29;;;;;;;3.70;2.35;;;;;;;20.08;68.07;96615.53;4866218;29;20649;-87
2022/10/18 11:46:13;;;;;;;4.25;2.30;;;;;;;20.29;67.37;96619.28;4880301;29;20211;-86